sensor_id;sensor_type;location;lat;lon;timestamp;pressure;altitude;pressure_sealevel;temperature;humidity
55070;BME280;40967;52.070;8.596;2023-08-24T00:00:38;100774.16;;;18.64;84.58
55070;BME280;40967;52.070;8.596;2023-08-24T00:03:03;100765.84;;;18.56;85.30
55070;BME280;40967;52.070;8.596;2023-08-24T00:05:29;100758.56;;;18.51;85.59
55070;BME280;40967;52.070;8.596;2023-08-24T00:07:57;100756.50;;;18.57;84.80
55070;BME280;40967;52.070;8.596;2023-08-24T00:10:23;100746.63;;;18.56;84.30
55070;BME280;40967;52.070;8.596;2023-08-24T00:12:48;100752.13;;;18.56;83.72
55070;BME280;40967;52.070;8.596;2023-08-24T00:15:14;100760.34;;;18.56;83.39
55070;BME280;40967;52.070;8.596;2023-08-24T00:17:39;100758.88;;;18.50;83.67
55070;BME280;40967;52.070;8.596;2023-08-24T00:20:06;100760.00;;;18.49;83.98
55070;BME280;40967;52.070;8.596;2023-08-24T00:22:37;100755.28;;;18.41;84.15
55070;BME280;40967;52.070;8.596;2023-08-24T00:25:03;100758.31;;;18.39;84.62
55070;BME280;40967;52.070;8.596;2023-08-24T00:27:28;100751.03;;;18.35;85.10
55070;BME280;40967;52.070;8.596;2023-08-24T00:29:54;100744.34;;;18.27;85.32
55070;BME280;40967;52.070;8.596;2023-08-24T00:32:19;100745.19;;;18.28;85.18
55070;BME280;40967;52.070;8.596;2023-08-24T00:34:45;100751.13;;;18.30;85.28
55070;BME280;40967;52.070;8.596;2023-08-24T00:37:11;100747.59;;;18.29;85.38
55070;BME280;40967;52.070;8.596;2023-08-24T00:39:36;100742.91;;;18.30;85.09
55070;BME280;40967;52.070;8.596;2023-08-24T00:42:02;100731.44;;;18.28;84.57
55070;BME280;40967;52.070;8.596;2023-08-24T00:44:27;100743.53;;;18.27;84.20
55070;BME280;40967;52.070;8.596;2023-08-24T00:46:53;100746.59;;;18.25;83.92
55070;BME280;40967;52.070;8.596;2023-08-24T00:49:20;100750.31;;;18.21;83.90
55070;BME280;40967;52.070;8.596;2023-08-24T00:51:46;100747.88;;;18.19;84.28
55070;BME280;40967;52.070;8.596;2023-08-24T00:54:11;100748.47;;;18.16;84.45
55070;BME280;40967;52.070;8.596;2023-08-24T00:56:37;100747.97;;;18.14;84.85
55070;BME280;40967;52.070;8.596;2023-08-24T00:59:02;100740.88;;;18.13;84.87
55070;BME280;40967;52.070;8.596;2023-08-24T01:01:28;100741.50;;;18.10;85.12
55070;BME280;40967;52.070;8.596;2023-08-24T01:03:53;100744.59;;;18.08;85.15
55070;BME280;40967;52.070;8.596;2023-08-24T01:06:19;100745.19;;;18.05;85.41
55070;BME280;40967;52.070;8.596;2023-08-24T01:08:44;100746.63;;;18.03;85.50
55070;BME280;40967;52.070;8.596;2023-08-24T01:13:53;100748.19;;;17.95;85.87
55070;BME280;40967;52.070;8.596;2023-08-24T01:16:28;100747.19;;;17.91;85.91
55070;BME280;40967;52.070;8.596;2023-08-24T01:18:56;100751.88;;;17.91;85.96
55070;BME280;40967;52.070;8.596;2023-08-24T01:21:22;100753.31;;;17.88;86.43
55070;BME280;40967;52.070;8.596;2023-08-24T01:24:04;100756.38;;;17.87;86.47
55070;BME280;40967;52.070;8.596;2023-08-24T01:26:34;100745.84;;;17.80;86.85
55070;BME280;40967;52.070;8.596;2023-08-24T01:29:01;100752.44;;;17.79;86.58
55070;BME280;40967;52.070;8.596;2023-08-24T01:31:27;100751.94;;;17.77;86.84
55070;BME280;40967;52.070;8.596;2023-08-24T01:33:53;100750.44;;;17.71;87.27
55070;BME280;40967;52.070;8.596;2023-08-24T01:36:19;100747.69;;;17.71;87.37
55070;BME280;40967;52.070;8.596;2023-08-24T01:38:48;100739.59;;;17.66;87.20
55070;BME280;40967;52.070;8.596;2023-08-24T01:41:25;100730.72;;;17.69;87.26
55070;BME280;40967;52.070;8.596;2023-08-24T01:43:54;100742.84;;;17.68;87.36
55070;BME280;40967;52.070;8.596;2023-08-24T01:46:22;100730.03;;;17.64;87.53
55070;BME280;40967;52.070;8.596;2023-08-24T01:48:49;100733.59;;;17.64;87.26
55070;BME280;40967;52.070;8.596;2023-08-24T01:51:17;100738.25;;;17.64;87.17
55070;BME280;40967;52.070;8.596;2023-08-24T01:53:42;100717.69;;;17.53;87.29
55070;BME280;40967;52.070;8.596;2023-08-24T01:56:13;100719.50;;;17.57;87.36
55070;BME280;40967;52.070;8.596;2023-08-24T01:58:38;100718.34;;;17.58;87.54
55070;BME280;40967;52.070;8.596;2023-08-24T02:01:05;100711.25;;;17.57;87.91
55070;BME280;40967;52.070;8.596;2023-08-24T02:03:30;100694.75;;;17.49;88.07
55070;BME280;40967;52.070;8.596;2023-08-24T02:05:56;100680.28;;;17.43;88.18
55070;BME280;40967;52.070;8.596;2023-08-24T02:08:21;100701.22;;;17.53;88.44
55070;BME280;40967;52.070;8.596;2023-08-24T02:10:47;100700.41;;;17.52;88.69
55070;BME280;40967;52.070;8.596;2023-08-24T02:13:12;100694.94;;;17.52;88.76
55070;BME280;40967;52.070;8.596;2023-08-24T02:15:38;100692.81;;;17.49;88.76
55070;BME280;40967;52.070;8.596;2023-08-24T02:18:07;100700.53;;;17.47;89.56
55070;BME280;40967;52.070;8.596;2023-08-24T02:20:36;100700.00;;;17.45;89.90
55070;BME280;40967;52.070;8.596;2023-08-24T02:23:03;100704.66;;;17.45;89.89
55070;BME280;40967;52.070;8.596;2023-08-24T02:25:28;100702.88;;;17.40;90.26
55070;BME280;40967;52.070;8.596;2023-08-24T02:27:53;100703.50;;;17.37;90.45
55070;BME280;40967;52.070;8.596;2023-08-24T02:30:19;100690.88;;;17.36;90.78
55070;BME280;40967;52.070;8.596;2023-08-24T02:32:44;100692.13;;;17.30;90.58
55070;BME280;40967;52.070;8.596;2023-08-24T02:35:10;100696.19;;;17.33;90.68
55070;BME280;40967;52.070;8.596;2023-08-24T02:37:35;100691.50;;;17.33;90.73
55070;BME280;40967;52.070;8.596;2023-08-24T02:40:00;100691.00;;;17.31;90.65
55070;BME280;40967;52.070;8.596;2023-08-24T02:42:26;100690.81;;;17.28;90.31
55070;BME280;40967;52.070;8.596;2023-08-24T02:44:52;100692.06;;;17.22;90.60
55070;BME280;40967;52.070;8.596;2023-08-24T02:47:17;100695.28;;;17.24;90.50
55070;BME280;40967;52.070;8.596;2023-08-24T02:49:43;100681.09;;;17.22;90.23
55070;BME280;40967;52.070;8.596;2023-08-24T02:52:08;100676.72;;;17.21;90.51
55070;BME280;40967;52.070;8.596;2023-08-24T02:54:34;100678.44;;;17.17;90.52
55070;BME280;40967;52.070;8.596;2023-08-24T02:56:59;100687.81;;;17.16;90.10
55070;BME280;40967;52.070;8.596;2023-08-24T02:59:25;100678.56;;;17.12;90.16
55070;BME280;40967;52.070;8.596;2023-08-24T03:01:51;100678.56;;;17.12;90.22
55070;BME280;40967;52.070;8.596;2023-08-24T03:04:17;100670.56;;;17.01;89.93
55070;BME280;40967;52.070;8.596;2023-08-24T03:06:43;100685.81;;;17.08;90.40
55070;BME280;40967;52.070;8.596;2023-08-24T03:09:09;100673.50;;;17.05;90.34
55070;BME280;40967;52.070;8.596;2023-08-24T03:11:34;100668.66;;;17.02;90.54
55070;BME280;40967;52.070;8.596;2023-08-24T03:14:00;100670.06;;;16.99;90.48
55070;BME280;40967;52.070;8.596;2023-08-24T03:16:26;100679.13;;;17.00;90.55
55070;BME280;40967;52.070;8.596;2023-08-24T03:18:51;100677.59;;;16.94;90.53
55070;BME280;40967;52.070;8.596;2023-08-24T03:21:17;100674.06;;;16.93;90.91
55070;BME280;40967;52.070;8.596;2023-08-24T03:23:42;100684.41;;;16.96;91.02
55070;BME280;40967;52.070;8.596;2023-08-24T03:26:08;100677.69;;;16.89;91.42
55070;BME280;40967;52.070;8.596;2023-08-24T03:28:33;100685.81;;;16.94;91.51
55070;BME280;40967;52.070;8.596;2023-08-24T03:31:00;100678.91;;;16.96;91.49
55070;BME280;40967;52.070;8.596;2023-08-24T03:33:25;100688.47;;;16.99;91.83
55070;BME280;40967;52.070;8.596;2023-08-24T03:35:53;100676.38;;;17.00;91.95
55070;BME280;40967;52.070;8.596;2023-08-24T03:38:18;100678.50;;;17.03;92.14
55070;BME280;40967;52.070;8.596;2023-08-24T03:40:44;100675.44;;;17.04;92.55
55070;BME280;40967;52.070;8.596;2023-08-24T03:43:09;100685.28;;;17.06;92.53
55070;BME280;40967;52.070;8.596;2023-08-24T03:45:34;100691.59;;;17.06;93.10
55070;BME280;40967;52.070;8.596;2023-08-24T03:48:00;100696.25;;;17.06;92.87
55070;BME280;40967;52.070;8.596;2023-08-24T03:50:25;100697.69;;;17.03;93.17
55070;BME280;40967;52.070;8.596;2023-08-24T03:52:51;100680.25;;;16.99;93.29
55070;BME280;40967;52.070;8.596;2023-08-24T03:55:17;100691.41;;;17.02;93.03
55070;BME280;40967;52.070;8.596;2023-08-24T03:57:42;100694.44;;;17.01;93.42
55070;BME280;40967;52.070;8.596;2023-08-24T04:00:08;100707.66;;;16.99;93.94
55070;BME280;40967;52.070;8.596;2023-08-24T04:02:46;100695.88;;;16.98;94.02
55070;BME280;40967;52.070;8.596;2023-08-24T04:05:11;100699.50;;;16.94;94.00
55070;BME280;40967;52.070;8.596;2023-08-24T04:07:37;100710.41;;;16.99;94.21
55070;BME280;40967;52.070;8.596;2023-08-24T04:10:08;100704.91;;;16.99;94.07
55070;BME280;40967;52.070;8.596;2023-08-24T04:12:37;100706.53;;;17.00;93.94
55070;BME280;40967;52.070;8.596;2023-08-24T04:15:03;100697.47;;;16.99;93.85
55070;BME280;40967;52.070;8.596;2023-08-24T04:17:28;100700.94;;;17.05;94.46
55070;BME280;40967;52.070;8.596;2023-08-24T04:19:54;100683.66;;;17.04;94.43
55070;BME280;40967;52.070;8.596;2023-08-24T04:22:19;100686.31;;;17.10;94.55
55070;BME280;40967;52.070;8.596;2023-08-24T04:24:44;100675.53;;;17.13;94.47
55070;BME280;40967;52.070;8.596;2023-08-24T04:27:10;100662.94;;;17.12;94.97
55070;BME280;40967;52.070;8.596;2023-08-24T04:29:35;100676.72;;;17.21;94.85
55070;BME280;40967;52.070;8.596;2023-08-24T04:32:01;100682.41;;;17.24;95.39
55070;BME280;40967;52.070;8.596;2023-08-24T04:34:26;100682.59;;;17.28;95.55
55070;BME280;40967;52.070;8.596;2023-08-24T04:36:52;100687.75;;;17.29;95.28
55070;BME280;40967;52.070;8.596;2023-08-24T04:39:17;100697.31;;;17.32;95.89
55070;BME280;40967;52.070;8.596;2023-08-24T04:41:44;100695.97;;;17.29;95.54
55070;BME280;40967;52.070;8.596;2023-08-24T04:44:09;100695.66;;;17.31;95.48
55070;BME280;40967;52.070;8.596;2023-08-24T04:46:34;100714.47;;;17.37;95.11
55070;BME280;40967;52.070;8.596;2023-08-24T04:49:00;100714.66;;;17.41;95.14
55070;BME280;40967;52.070;8.596;2023-08-24T04:51:25;100717.09;;;17.42;95.12
55070;BME280;40967;52.070;8.596;2023-08-24T04:53:53;100721.75;;;17.42;95.72
55070;BME280;40967;52.070;8.596;2023-08-24T04:56:18;100716.28;;;17.42;95.34
55070;BME280;40967;52.070;8.596;2023-08-24T04:58:57;100719.94;;;17.37;95.43
55070;BME280;40967;52.070;8.596;2023-08-24T05:01:23;100719.56;;;17.30;96.08
55070;BME280;40967;52.070;8.596;2023-08-24T05:03:53;100720.25;;;17.36;95.90
55070;BME280;40967;52.070;8.596;2023-08-24T05:06:21;100728.66;;;17.39;95.92
55070;BME280;40967;52.070;8.596;2023-08-24T05:08:47;100727.25;;;17.42;96.53
55070;BME280;40967;52.070;8.596;2023-08-24T05:11:23;100737.41;;;17.41;96.80
55070;BME280;40967;52.070;8.596;2023-08-24T05:13:51;100738.41;;;17.45;96.53
55070;BME280;40967;52.070;8.596;2023-08-24T05:16:17;100731.72;;;17.51;96.23
55070;BME280;40967;52.070;8.596;2023-08-24T05:18:42;100721.72;;;17.55;96.53
55070;BME280;40967;52.070;8.596;2023-08-24T05:21:08;100720.00;;;17.59;96.21
55070;BME280;40967;52.070;8.596;2023-08-24T05:23:34;100712.78;;;17.63;96.41
55070;BME280;40967;52.070;8.596;2023-08-24T05:26:01;100706.66;;;17.66;96.89
55070;BME280;40967;52.070;8.596;2023-08-24T05:28:28;100696.69;;;17.70;97.57
55070;BME280;40967;52.070;8.596;2023-08-24T05:30:54;100689.75;;;17.73;98.71
55070;BME280;40967;52.070;8.596;2023-08-24T05:33:21;100680.09;;;17.75;99.30
55070;BME280;40967;52.070;8.596;2023-08-24T05:35:47;100666.06;;;17.77;99.80
55070;BME280;40967;52.070;8.596;2023-08-24T05:38:14;100663.63;;;17.75;100.00
55070;BME280;40967;52.070;8.596;2023-08-24T05:40:40;100654.56;;;17.75;100.00
55070;BME280;40967;52.070;8.596;2023-08-24T05:43:08;100644.41;;;17.75;100.00
55070;BME280;40967;52.070;8.596;2023-08-24T05:45:33;100636.19;;;17.75;100.00
55070;BME280;40967;52.070;8.596;2023-08-24T05:47:58;100635.69;;;17.73;100.00
55070;BME280;40967;52.070;8.596;2023-08-24T05:50:24;100638.94;;;17.75;100.00
55070;BME280;40967;52.070;8.596;2023-08-24T05:52:49;100647.94;;;17.76;100.00
55070;BME280;40967;52.070;8.596;2023-08-24T05:55:15;100642.47;;;17.76;100.00
55070;BME280;40967;52.070;8.596;2023-08-24T05:57:41;100628.88;;;17.71;100.00
55070;BME280;40967;52.070;8.596;2023-08-24T06:00:07;100638.41;;;17.73;100.00
55070;BME280;40967;52.070;8.596;2023-08-24T06:02:35;100644.41;;;17.75;100.00
55070;BME280;40967;52.070;8.596;2023-08-24T06:05:01;100650.09;;;17.79;100.00
55070;BME280;40967;52.070;8.596;2023-08-24T06:07:28;100650.56;;;17.81;100.00
55070;BME280;40967;52.070;8.596;2023-08-24T06:09:54;100655.75;;;17.82;100.00
55070;BME280;40967;52.070;8.596;2023-08-24T06:12:19;100657.38;;;17.83;100.00
55070;BME280;40967;52.070;8.596;2023-08-24T06:14:47;100658.97;;;17.84;100.00
55070;BME280;40967;52.070;8.596;2023-08-24T06:17:13;100658.69;;;17.86;100.00
55070;BME280;40967;52.070;8.596;2023-08-24T06:19:38;100672.09;;;17.87;100.00
55070;BME280;40967;52.070;8.596;2023-08-24T06:22:04;100667.28;;;17.93;100.00
55070;BME280;40967;52.070;8.596;2023-08-24T06:24:29;100662.44;;;17.98;100.00
55070;BME280;40967;52.070;8.596;2023-08-24T06:26:54;100656.53;;;18.05;100.00
55070;BME280;40967;52.070;8.596;2023-08-24T06:29:20;100646.19;;;18.10;100.00
55070;BME280;40967;52.070;8.596;2023-08-24T06:31:45;100654.31;;;18.16;100.00
55070;BME280;40967;52.070;8.596;2023-08-24T06:34:10;100653.03;;;18.22;100.00
55070;BME280;40967;52.070;8.596;2023-08-24T06:36:36;100630.44;;;18.25;100.00
55070;BME280;40967;52.070;8.596;2023-08-24T06:39:03;100630.09;;;18.26;100.00
55070;BME280;40967;52.070;8.596;2023-08-24T06:41:33;100624.66;;;18.35;100.00
55070;BME280;40967;52.070;8.596;2023-08-24T06:43:58;100633.88;;;18.39;100.00
55070;BME280;40967;52.070;8.596;2023-08-24T06:46:24;100629.06;;;18.44;100.00
55070;BME280;40967;52.070;8.596;2023-08-24T06:48:49;100629.25;;;18.48;100.00
55070;BME280;40967;52.070;8.596;2023-08-24T06:51:14;100629.91;;;18.53;100.00
55070;BME280;40967;52.070;8.596;2023-08-24T06:53:40;100620.84;;;18.53;100.00
55070;BME280;40967;52.070;8.596;2023-08-24T06:56:05;100626.69;;;18.60;100.00
55070;BME280;40967;52.070;8.596;2023-08-24T06:58:30;100606.00;;;18.54;100.00
55070;BME280;40967;52.070;8.596;2023-08-24T07:00:56;100613.13;;;18.72;100.00
55070;BME280;40967;52.070;8.596;2023-08-24T07:03:22;100614.63;;;18.78;100.00
55070;BME280;40967;52.070;8.596;2023-08-24T07:05:49;100609.78;;;18.83;100.00
55070;BME280;40967;52.070;8.596;2023-08-24T07:08:14;100612.38;;;18.88;100.00
55070;BME280;40967;52.070;8.596;2023-08-24T07:10:40;100601.53;;;18.92;99.65
55070;BME280;40967;52.070;8.596;2023-08-24T07:13:07;100597.16;;;18.99;99.45
55070;BME280;40967;52.070;8.596;2023-08-24T07:15:33;100600.38;;;19.10;99.13
55070;BME280;40967;52.070;8.596;2023-08-24T07:18:01;100587.28;;;19.15;98.73
55070;BME280;40967;52.070;8.596;2023-08-24T07:20:26;100577.75;;;19.21;98.26
55070;BME280;40967;52.070;8.596;2023-08-24T07:22:51;100569.81;;;19.29;98.55
55070;BME280;40967;52.070;8.596;2023-08-24T07:25:19;100561.41;;;19.42;99.57
55070;BME280;40967;52.070;8.596;2023-08-24T07:27:46;100546.63;;;19.55;99.42
55070;BME280;40967;52.070;8.596;2023-08-24T07:30:12;100568.41;;;19.77;98.06
55070;BME280;40967;52.070;8.596;2023-08-24T07:32:37;100567.03;;;20.00;98.40
55070;BME280;40967;52.070;8.596;2023-08-24T07:35:03;100566.13;;;20.25;97.18
55070;BME280;40967;52.070;8.596;2023-08-24T07:37:31;100575.56;;;20.45;95.32
55070;BME280;40967;52.070;8.596;2023-08-24T07:39:57;100569.91;;;20.71;94.24
55070;BME280;40967;52.070;8.596;2023-08-24T07:42:22;100574.38;;;20.96;93.18
55070;BME280;40967;52.070;8.596;2023-08-24T07:44:48;100564.66;;;21.19;91.93
55070;BME280;40967;52.070;8.596;2023-08-24T07:47:14;100567.06;;;21.53;91.04
55070;BME280;40967;52.070;8.596;2023-08-24T07:49:39;100566.25;;;21.85;89.16
55070;BME280;40967;52.070;8.596;2023-08-24T07:52:11;100563.28;;;22.14;86.93
55070;BME280;40967;52.070;8.596;2023-08-24T07:54:37;100566.47;;;22.40;85.16
55070;BME280;40967;52.070;8.596;2023-08-24T07:57:04;100574.31;;;22.63;84.04
55070;BME280;40967;52.070;8.596;2023-08-24T07:59:29;100571.28;;;22.92;82.68
55070;BME280;40967;52.070;8.596;2023-08-24T08:01:55;100566.88;;;23.18;80.31
55070;BME280;40967;52.070;8.596;2023-08-24T08:04:20;100564.94;;;23.46;78.94
55070;BME280;40967;52.070;8.596;2023-08-24T08:06:46;100567.22;;;23.72;77.14
55070;BME280;40967;52.070;8.596;2023-08-24T08:09:11;100570.13;;;24.07;76.39
55070;BME280;40967;52.070;8.596;2023-08-24T08:11:37;100562.31;;;24.43;74.08
55070;BME280;40967;52.070;8.596;2023-08-24T08:14:02;100562.88;;;24.68;73.04
55070;BME280;40967;52.070;8.596;2023-08-24T08:16:28;100570.59;;;24.94;71.94
55070;BME280;40967;52.070;8.596;2023-08-24T08:18:53;100572.66;;;25.16;70.43
55070;BME280;40967;52.070;8.596;2023-08-24T08:21:19;100567.97;;;25.39;69.82
55070;BME280;40967;52.070;8.596;2023-08-24T08:23:44;100569.09;;;25.76;68.60
55070;BME280;40967;52.070;8.596;2023-08-24T08:26:10;100558.63;;;26.11;67.31
55070;BME280;40967;52.070;8.596;2023-08-24T08:28:36;100557.84;;;26.37;65.56
55070;BME280;40967;52.070;8.596;2023-08-24T08:31:01;100559.94;;;26.69;64.91
55070;BME280;40967;52.070;8.596;2023-08-24T08:33:28;100561.56;;;27.04;63.18
55070;BME280;40967;52.070;8.596;2023-08-24T08:35:53;100552.38;;;27.29;61.90
55070;BME280;40967;52.070;8.596;2023-08-24T08:38:18;100554.53;;;27.43;61.29
55070;BME280;40967;52.070;8.596;2023-08-24T08:40:49;100539.56;;;27.61;60.53
55070;BME280;40967;52.070;8.596;2023-08-24T08:43:15;100553.69;;;27.79;59.38
55070;BME280;40967;52.070;8.596;2023-08-24T08:45:40;100553.78;;;27.89;59.47
55070;BME280;40967;52.070;8.596;2023-08-24T08:48:07;100567.56;;;28.12;58.60
55070;BME280;40967;52.070;8.596;2023-08-24T08:50:34;100564.13;;;28.33;58.16
55070;BME280;40967;52.070;8.596;2023-08-24T08:53:00;100553.84;;;28.44;57.63
55070;BME280;40967;52.070;8.596;2023-08-24T08:55:27;100560.38;;;28.65;56.78
55070;BME280;40967;52.070;8.596;2023-08-24T08:57:55;100544.47;;;28.69;56.00
55070;BME280;40967;52.070;8.596;2023-08-24T09:00:23;100538.13;;;28.79;55.72
55070;BME280;40967;52.070;8.596;2023-08-24T09:02:51;100535.41;;;28.93;56.34
55070;BME280;40967;52.070;8.596;2023-08-24T09:05:17;100529.88;;;29.04;55.98
55070;BME280;40967;52.070;8.596;2023-08-24T09:07:43;100527.88;;;29.08;55.34
55070;BME280;40967;52.070;8.596;2023-08-24T09:10:09;100531.94;;;29.18;54.99
55070;BME280;40967;52.070;8.596;2023-08-24T09:12:35;100522.81;;;29.28;54.45
55070;BME280;40967;52.070;8.596;2023-08-24T09:15:07;100514.41;;;29.38;53.97
55070;BME280;40967;52.070;8.596;2023-08-24T09:17:33;100519.25;;;29.48;53.79
55070;BME280;40967;52.070;8.596;2023-08-24T09:20:07;100514.47;;;29.63;53.33
55070;BME280;40967;52.070;8.596;2023-08-24T09:22:35;100502.53;;;29.76;53.26
55070;BME280;40967;52.070;8.596;2023-08-24T09:25:02;100498.53;;;29.98;52.51
55070;BME280;40967;52.070;8.596;2023-08-24T09:27:29;100487.72;;;30.18;51.54
55070;BME280;40967;52.070;8.596;2023-08-24T09:29:54;100481.72;;;30.37;51.48
55070;BME280;40967;52.070;8.596;2023-08-24T09:32:24;100485.28;;;30.45;51.39
55070;BME280;40967;52.070;8.596;2023-08-24T09:34:50;100477.66;;;30.52;50.59
55070;BME280;40967;52.070;8.596;2023-08-24T09:37:16;100474.00;;;30.66;50.62
55070;BME280;40967;52.070;8.596;2023-08-24T09:39:42;100466.41;;;30.80;50.10
55070;BME280;40967;52.070;8.596;2023-08-24T09:42:08;100471.09;;;30.97;50.04
55070;BME280;40967;52.070;8.596;2023-08-24T09:44:33;100470.63;;;31.09;48.80
55070;BME280;40967;52.070;8.596;2023-08-24T09:46:59;100467.78;;;31.20;48.25
55070;BME280;40967;52.070;8.596;2023-08-24T09:49:24;100470.50;;;31.38;47.63
55070;BME280;40967;52.070;8.596;2023-08-24T09:51:55;100472.00;;;31.49;47.21
55070;BME280;40967;52.070;8.596;2023-08-24T09:54:22;100467.06;;;31.67;47.00
55070;BME280;40967;52.070;8.596;2023-08-24T09:56:50;100474.50;;;31.91;46.11
55070;BME280;40967;52.070;8.596;2023-08-24T09:59:16;100469.19;;;32.04;44.89
55070;BME280;40967;52.070;8.596;2023-08-24T10:01:48;100465.47;;;32.14;44.25
55070;BME280;40967;52.070;8.596;2023-08-24T10:04:16;100468.13;;;32.28;43.71
55070;BME280;40967;52.070;8.596;2023-08-24T10:06:44;100455.22;;;32.34;42.50
55070;BME280;40967;52.070;8.596;2023-08-24T10:09:19;100455.13;;;32.45;40.87
55070;BME280;40967;52.070;8.596;2023-08-24T10:11:52;100442.69;;;32.46;40.08
55070;BME280;40967;52.070;8.596;2023-08-24T10:14:39;100439.59;;;32.67;40.01
55070;BME280;40967;52.070;8.596;2023-08-24T10:17:08;100432.50;;;32.89;39.90
55070;BME280;40967;52.070;8.596;2023-08-24T10:19:35;100433.06;;;33.07;39.80
55070;BME280;40967;52.070;8.596;2023-08-24T10:22:02;100430.03;;;33.21;39.46
55070;BME280;40967;52.070;8.596;2023-08-24T10:24:28;100419.88;;;33.30;39.89
55070;BME280;40967;52.070;8.596;2023-08-24T10:26:57;100405.22;;;33.43;39.96
55070;BME280;40967;52.070;8.596;2023-08-24T10:29:25;100411.06;;;33.55;39.64
55070;BME280;40967;52.070;8.596;2023-08-24T10:31:53;100411.53;;;33.50;39.76
55070;BME280;40967;52.070;8.596;2023-08-24T10:34:19;100407.19;;;33.46;39.92
55070;BME280;40967;52.070;8.596;2023-08-24T10:36:47;100402.41;;;33.43;39.71
55070;BME280;40967;52.070;8.596;2023-08-24T10:39:12;100412.31;;;33.51;39.87
55070;BME280;40967;52.070;8.596;2023-08-24T10:41:52;100426.28;;;33.58;39.88
55070;BME280;40967;52.070;8.596;2023-08-24T10:44:25;100413.19;;;33.71;39.90
55070;BME280;40967;52.070;8.596;2023-08-24T10:54:50;100415.34;;;33.86;39.26
55070;BME280;40967;52.070;8.596;2023-08-24T10:57:24;100412.69;;;33.99;38.95
55070;BME280;40967;52.070;8.596;2023-08-24T11:02:31;100414.78;;;34.37;38.49
55070;BME280;40967;52.070;8.596;2023-08-24T11:05:07;100407.47;;;34.60;37.61
55070;BME280;40967;52.070;8.596;2023-08-24T11:08:03;100390.00;;;34.68;37.79
55070;BME280;40967;52.070;8.596;2023-08-24T11:10:45;100381.38;;;34.75;37.22
55070;BME280;40967;52.070;8.596;2023-08-24T11:13:13;100376.91;;;34.78;36.72
55070;BME280;40967;52.070;8.596;2023-08-24T11:15:46;100368.19;;;34.88;36.37
55070;BME280;40967;52.070;8.596;2023-08-24T11:18:28;100358.28;;;35.00;37.05
55070;BME280;40967;52.070;8.596;2023-08-24T11:21:02;100360.84;;;35.10;36.68
55070;BME280;40967;52.070;8.596;2023-08-24T11:23:28;100356.56;;;35.22;36.34
55070;BME280;40967;52.070;8.596;2023-08-24T11:25:55;100346.50;;;35.37;36.36
55070;BME280;40967;52.070;8.596;2023-08-24T11:28:28;100342.88;;;35.53;36.14
55070;BME280;40967;52.070;8.596;2023-08-24T11:30:57;100337.25;;;35.53;36.05
55070;BME280;40967;52.070;8.596;2023-08-24T11:33:41;100333.63;;;35.52;35.55
55070;BME280;40967;52.070;8.596;2023-08-24T11:36:08;100328.31;;;35.54;35.89
55070;BME280;40967;52.070;8.596;2023-08-24T11:38:41;100319.41;;;35.56;34.80
55070;BME280;40967;52.070;8.596;2023-08-24T11:43:41;100295.31;;;35.67;34.10
55070;BME280;40967;52.070;8.596;2023-08-24T11:46:07;100295.06;;;35.62;33.53
55070;BME280;40967;52.070;8.596;2023-08-24T11:48:33;100285.09;;;35.57;33.95
55070;BME280;40967;52.070;8.596;2023-08-24T11:50:58;100284.56;;;35.62;34.29
55070;BME280;40967;52.070;8.596;2023-08-24T11:53:28;100265.59;;;35.63;33.96
55070;BME280;40967;52.070;8.596;2023-08-24T11:55:54;100260.50;;;35.58;33.72
55070;BME280;40967;52.070;8.596;2023-08-24T11:58:22;100273.47;;;35.55;33.77
55070;BME280;40967;52.070;8.596;2023-08-24T12:00:48;100278.69;;;35.57;34.01
55070;BME280;40967;52.070;8.596;2023-08-24T12:03:14;100275.09;;;35.40;33.36
55070;BME280;40967;52.070;8.596;2023-08-24T12:05:40;100264.31;;;35.19;33.43
55070;BME280;40967;52.070;8.596;2023-08-24T12:08:05;100265.13;;;35.19;33.59
55070;BME280;40967;52.070;8.596;2023-08-24T12:10:31;100251.72;;;35.23;34.20
55070;BME280;40967;52.070;8.596;2023-08-24T12:13:05;100249.69;;;35.24;34.51
55070;BME280;40967;52.070;8.596;2023-08-24T12:15:33;100258.28;;;35.04;35.14
55070;BME280;40967;52.070;8.596;2023-08-24T12:18:10;100262.63;;;34.89;35.70
55070;BME280;40967;52.070;8.596;2023-08-24T12:20:36;100258.78;;;34.83;35.67
55070;BME280;40967;52.070;8.596;2023-08-24T12:23:01;100253.75;;;34.75;35.76
55070;BME280;40967;52.070;8.596;2023-08-24T12:25:30;100248.47;;;34.77;35.43
55070;BME280;40967;52.070;8.596;2023-08-24T12:28:13;100243.25;;;34.75;35.86
55070;BME280;40967;52.070;8.596;2023-08-24T12:30:52;100240.63;;;34.68;35.94
55070;BME280;40967;52.070;8.596;2023-08-24T12:33:26;100242.72;;;34.64;36.12
55070;BME280;40967;52.070;8.596;2023-08-24T12:35:53;100251.44;;;34.54;36.24
55070;BME280;40967;52.070;8.596;2023-08-24T12:38:19;100255.50;;;34.33;36.83
55070;BME280;40967;52.070;8.596;2023-08-24T12:40:45;100249.31;;;34.22;36.92
55070;BME280;40967;52.070;8.596;2023-08-24T12:43:10;100245.09;;;33.94;36.90
55070;BME280;40967;52.070;8.596;2023-08-24T12:45:36;100232.06;;;33.81;37.39
55070;BME280;40967;52.070;8.596;2023-08-24T12:48:04;100234.97;;;33.77;37.44
55070;BME280;40967;52.070;8.596;2023-08-24T12:50:29;100241.88;;;33.73;37.61
55070;BME280;40967;52.070;8.596;2023-08-24T12:52:55;100233.94;;;33.68;37.88
55070;BME280;40967;52.070;8.596;2023-08-24T12:55:24;100251.47;;;33.56;38.01
55070;BME280;40967;52.070;8.596;2023-08-24T12:57:50;100250.91;;;33.41;38.33
55070;BME280;40967;52.070;8.596;2023-08-24T13:00:15;100243.81;;;33.33;38.28
55070;BME280;40967;52.070;8.596;2023-08-24T13:02:41;100225.56;;;33.21;38.67